createdAt,value
2023-03-16T00:02:07.501Z,3.02
2023-03-16T00:04:37.713Z,2.83
2023-03-16T00:07:10.301Z,2.55
2023-03-16T00:09:41.199Z,2.49
2023-03-16T00:12:19.146Z,2.48
2023-03-16T00:14:49.044Z,2.53
2023-03-16T00:17:21.423Z,2.38
2023-03-16T00:19:55.211Z,2.37
2023-03-16T00:22:26.808Z,2.38
2023-03-16T00:24:54.018Z,2.36
2023-03-16T00:27:22.915Z,2.13
2023-03-16T00:29:55.814Z,1.94
2023-03-16T00:32:43.010Z,1.93
2023-03-16T00:35:09.937Z,1.79
2023-03-16T00:37:37.712Z,1.87
2023-03-16T00:40:06.338Z,1.88
2023-03-16T00:42:34.276Z,1.87
2023-03-16T00:45:01.720Z,1.85
2023-03-16T00:47:32.771Z,1.61
2023-03-16T00:50:01.077Z,1.45
2023-03-16T00:52:28.837Z,1.25
2023-03-16T00:54:56.296Z,1.42
2023-03-16T00:57:25.234Z,1.36
2023-03-16T00:59:54.112Z,0.89
2023-03-16T01:02:23.687Z,0.66
2023-03-16T01:04:52.941Z,0.74
2023-03-16T01:07:19.889Z,0.41
2023-03-16T01:09:46.631Z,0.26
2023-03-16T01:12:18.070Z,0.23
2023-03-16T01:14:47.787Z,-0.11
2023-03-16T01:17:16.480Z,-0.19
2023-03-16T01:19:43.941Z,-0.50
2023-03-16T01:22:11.765Z,-0.54
2023-03-16T01:24:39.744Z,-1.06
2023-03-16T01:27:07.878Z,-1.22
2023-03-16T01:29:35.177Z,-1.35
2023-03-16T01:32:04.041Z,-1.56
2023-03-16T01:34:32.023Z,-1.89
2023-03-16T01:36:58.992Z,-1.82
2023-03-16T01:39:25.843Z,-2.03
2023-03-16T01:41:52.483Z,-2.01
2023-03-16T01:44:28.287Z,-2.18
2023-03-16T01:46:55.001Z,-2.37
2023-03-16T01:49:30.104Z,-2.53
2023-03-16T01:52:10.252Z,-2.30
2023-03-16T01:54:42.746Z,-2.35
2023-03-16T01:57:19.395Z,-2.17
2023-03-16T01:59:55.773Z,-2.19
2023-03-16T02:02:27.289Z,-2.07
2023-03-16T02:05:09.149Z,-1.87
2023-03-16T02:07:43.250Z,-2.13
2023-03-16T02:10:12.077Z,-2.27
2023-03-16T02:12:41.459Z,-2.34
2023-03-16T02:15:12.049Z,-2.43
2023-03-16T02:17:38.548Z,-2.65
2023-03-16T02:20:24.370Z,-2.73
2023-03-16T02:22:55.741Z,-2.76
2023-03-16T02:25:36.979Z,-2.82
2023-03-16T02:28:15.620Z,-2.89
2023-03-16T02:30:42.478Z,-2.83
2023-03-16T02:33:09.460Z,-2.90
2023-03-16T02:35:36.079Z,-3.01
2023-03-16T02:38:02.754Z,-3.01
2023-03-16T02:40:34.523Z,-3.11
2023-03-16T02:43:05.304Z,-3.14
2023-03-16T02:45:44.654Z,-3.14
2023-03-16T02:48:19.057Z,-3.08
2023-03-16T02:50:48.682Z,-3.32
2023-03-16T02:53:16.388Z,-3.31
2023-03-16T02:55:43.667Z,-3.11
2023-03-16T02:58:10.416Z,-2.88
2023-03-16T03:00:38.289Z,-2.65
2023-03-16T03:03:07.714Z,-2.43
2023-03-16T03:05:34.310Z,-2.30
2023-03-16T03:08:01.252Z,-1.99
2023-03-16T03:10:28.309Z,-1.92
2023-03-16T03:12:55.183Z,-1.80
2023-03-16T03:15:21.913Z,-1.68
2023-03-16T03:17:48.511Z,-1.52
2023-03-16T03:20:18.393Z,-1.26
2023-03-16T03:22:48.793Z,-1.21
2023-03-16T03:25:18.423Z,-1.20
2023-03-16T03:27:46.362Z,-0.96
2023-03-16T03:30:17.517Z,-0.87
2023-03-16T03:32:44.325Z,-0.72
2023-03-16T03:35:13.346Z,-0.82
2023-03-16T03:37:42.258Z,-0.95
2023-03-16T03:40:12.511Z,-0.82
2023-03-16T03:42:42.108Z,-0.82
2023-03-16T03:45:12.896Z,-0.74
2023-03-16T03:47:40.605Z,-0.44
2023-03-16T03:50:08.409Z,-0.76
2023-03-16T03:52:35.052Z,-0.86
2023-03-16T03:55:01.691Z,-0.84
2023-03-16T03:57:28.343Z,-0.93
2023-03-16T03:59:54.954Z,-0.94
2023-03-16T04:02:21.712Z,-1.05
2023-03-16T04:04:48.618Z,-0.95
2023-03-16T04:07:15.236Z,-0.91
2023-03-16T04:09:41.993Z,-0.99
2023-03-16T04:12:08.852Z,-0.98
2023-03-16T04:14:35.664Z,-1.14
2023-03-16T04:17:02.300Z,-1.42
2023-03-16T04:19:28.916Z,-1.50
2023-03-16T04:21:55.662Z,-1.46
2023-03-16T04:24:22.461Z,-1.78
2023-03-16T04:26:49.295Z,-1.68
2023-03-16T04:29:19.230Z,-1.74
2023-03-16T04:31:46.527Z,-1.80
2023-03-16T04:34:13.836Z,-1.57
2023-03-16T04:36:41.836Z,-1.54
2023-03-16T04:39:09.819Z,-1.90
2023-03-16T04:41:36.620Z,-1.92
2023-03-16T04:44:04.850Z,-2.22
2023-03-16T04:46:32.187Z,-2.44
2023-03-16T04:48:59.098Z,-2.62
2023-03-16T04:51:26.497Z,-2.88
2023-03-16T04:53:54.013Z,-3.09
2023-03-16T04:56:23.905Z,-3.34
2023-03-16T04:58:51.093Z,-3.35
2023-03-16T05:01:18.455Z,-3.45
2023-03-16T05:03:45.813Z,-3.54
2023-03-16T05:06:12.912Z,-3.48
2023-03-16T05:08:39.572Z,-3.55
2023-03-16T05:11:06.310Z,-3.65
2023-03-16T05:13:33.190Z,-3.50
2023-03-16T05:16:00.362Z,-3.78
2023-03-16T05:18:27.180Z,-3.71
2023-03-16T05:20:56.146Z,-3.63
2023-03-16T05:23:26.470Z,-3.59
2023-03-16T05:25:53.160Z,-3.37
2023-03-16T05:28:19.712Z,-3.23
2023-03-16T05:30:46.406Z,-3.35
2023-03-16T05:33:13.134Z,-3.31
2023-03-16T05:35:42.451Z,-3.28
2023-03-16T05:38:10.072Z,-3.21
2023-03-16T05:40:37.409Z,-3.00
2023-03-16T05:43:06.593Z,-2.79
2023-03-16T05:45:33.734Z,-2.40
2023-03-16T05:48:00.279Z,-2.46
2023-03-16T05:50:27.195Z,-2.10
2023-03-16T05:52:54.296Z,-1.71
2023-03-16T05:55:20.998Z,-1.69
2023-03-16T05:57:47.680Z,-1.24
2023-03-16T06:00:16.315Z,-1.01
2023-03-16T06:02:44.472Z,-0.60
2023-03-16T06:05:11.285Z,-0.15
2023-03-16T06:07:38.104Z,0.11
2023-03-16T06:10:06.483Z,0.38
2023-03-16T06:12:34.598Z,0.56
2023-03-16T06:15:02.335Z,0.62
2023-03-16T06:17:29.240Z,0.85
2023-03-16T06:19:55.878Z,1.12
2023-03-16T06:22:25.060Z,1.38
2023-03-16T06:24:52.432Z,1.67
2023-03-16T06:27:20.438Z,1.99
2023-03-16T06:29:47.794Z,2.10
2023-03-16T06:32:14.746Z,2.40
2023-03-16T06:34:43.587Z,2.57
2023-03-16T06:37:10.254Z,2.84
2023-03-16T06:39:36.867Z,3.33
2023-03-16T06:42:05.020Z,4.56
2023-03-16T06:44:31.765Z,5.34
2023-03-16T06:46:58.764Z,5.45
2023-03-16T06:49:25.332Z,5.32
2023-03-16T06:51:51.964Z,6.00
2023-03-16T06:54:18.597Z,5.53
2023-03-16T06:56:46.370Z,6.04
2023-03-16T06:59:13.295Z,6.59
2023-03-16T07:01:39.908Z,7.37
2023-03-16T07:04:06.626Z,6.62
2023-03-16T07:06:33.350Z,7.62
2023-03-16T07:09:01.439Z,7.75
2023-03-16T07:11:28.109Z,8.97
2023-03-16T07:13:54.699Z,9.69
2023-03-16T07:16:22.111Z,10.01
2023-03-16T07:18:48.782Z,9.28
2023-03-16T07:21:15.578Z,9.18
2023-03-16T07:23:42.149Z,9.47
2023-03-16T07:26:08.807Z,9.08
2023-03-16T07:28:35.653Z,10.10
2023-03-16T07:31:04.053Z,9.83
2023-03-16T07:33:32.901Z,8.65
2023-03-16T07:36:00.473Z,8.83
2023-03-16T07:38:27.076Z,9.77
2023-03-16T07:40:53.659Z,9.06
2023-03-16T07:43:20.282Z,8.90
2023-03-16T07:45:51.607Z,9.00
2023-03-16T07:48:18.957Z,9.62
2023-03-16T07:50:48.186Z,9.49
2023-03-16T07:53:15.705Z,10.53
2023-03-16T07:55:43.596Z,11.62
2023-03-16T07:58:11.361Z,11.29
2023-03-16T08:00:39.083Z,11.73
2023-03-16T08:03:06.072Z,11.09
2023-03-16T08:05:32.714Z,10.12
2023-03-16T08:07:59.880Z,9.61
2023-03-16T08:10:27.073Z,10.77
2023-03-16T08:12:53.869Z,11.30
2023-03-16T08:15:21.780Z,10.90
2023-03-16T08:17:48.380Z,10.81
2023-03-16T08:20:15.761Z,10.84
2023-03-16T08:22:46.375Z,11.27
2023-03-16T08:25:14.198Z,11.42
2023-03-16T08:27:43.442Z,11.22
2023-03-16T08:30:12.315Z,12.27
2023-03-16T08:32:39.843Z,12.10
2023-03-16T08:35:16.735Z,12.36
2023-03-16T08:37:43.797Z,11.24
2023-03-16T08:40:17.035Z,11.70
2023-03-16T08:42:44.940Z,12.25
2023-03-16T08:45:14.427Z,12.30
2023-03-16T08:47:41.516Z,12.61
2023-03-16T08:50:09.748Z,12.06
2023-03-16T08:52:36.694Z,12.40
2023-03-16T08:55:05.820Z,13.36
2023-03-16T08:57:33.603Z,13.18
2023-03-16T09:00:01.387Z,13.66
2023-03-16T09:02:29.051Z,12.53
2023-03-16T09:04:56.329Z,13.57
2023-03-16T09:07:23.136Z,14.16
2023-03-16T09:09:50.908Z,13.72
2023-03-16T09:12:17.528Z,14.04
2023-03-16T09:14:44.129Z,13.52
2023-03-16T09:17:11.822Z,12.84
2023-03-16T09:19:57.706Z,14.44
2023-03-16T09:22:25.712Z,14.39
2023-03-16T09:24:52.365Z,13.59
2023-03-16T09:27:20.735Z,14.62
2023-03-16T09:29:48.817Z,13.91
2023-03-16T09:32:15.561Z,14.43
2023-03-16T09:34:42.257Z,13.39
2023-03-16T09:37:09.722Z,14.83
2023-03-16T09:39:37.115Z,14.42
2023-03-16T09:42:25.232Z,14.53
2023-03-16T09:45:10.315Z,17.00
2023-03-16T09:47:38.663Z,16.56
2023-03-16T09:50:16.516Z,15.37
2023-03-16T09:53:09.441Z,13.93
2023-03-16T09:55:38.883Z,15.91
2023-03-16T09:58:13.710Z,15.00
2023-03-16T10:00:51.410Z,15.19
2023-03-16T10:03:38.338Z,15.73
2023-03-16T10:06:09.618Z,15.94
2023-03-16T10:08:43.646Z,14.79
2023-03-16T10:11:27.940Z,14.26
2023-03-16T10:14:17.789Z,11.92
2023-03-16T10:16:51.391Z,14.48
2023-03-16T10:19:23.572Z,13.87
2023-03-16T10:21:54.396Z,16.40
2023-03-16T10:24:46.993Z,15.01
2023-03-16T10:27:23.358Z,16.78
2023-03-16T10:29:50.024Z,14.87
2023-03-16T10:32:19.623Z,15.23
2023-03-16T10:34:56.618Z,14.62
2023-03-16T10:37:24.260Z,15.74
2023-03-16T10:39:50.866Z,17.40
2023-03-16T10:42:20.266Z,15.44
2023-03-16T10:44:47.474Z,17.48
2023-03-16T10:47:25.199Z,14.53
2023-03-16T10:49:51.885Z,15.44
2023-03-16T10:52:42.680Z,14.69
2023-03-16T10:55:24.198Z,13.14
2023-03-16T10:57:56.285Z,14.83
2023-03-16T11:00:29.032Z,16.13
2023-03-16T11:02:58.203Z,14.42
2023-03-16T11:05:34.181Z,14.26
2023-03-16T11:08:23.780Z,14.98
2023-03-16T11:11:14.279Z,15.61
2023-03-16T11:13:45.194Z,16.74
2023-03-16T11:16:38.266Z,14.01
2023-03-16T11:19:26.146Z,14.09
2023-03-16T11:22:08.369Z,17.61
2023-03-16T11:24:52.853Z,16.90
2023-03-16T11:27:30.269Z,15.99
2023-03-16T11:30:05.433Z,16.80
2023-03-16T11:32:38.357Z,15.98
2023-03-16T11:35:38.540Z,17.13
2023-03-16T11:38:21.721Z,17.25
2023-03-16T11:40:53.997Z,13.56
2023-03-16T11:43:20.875Z,14.01
2023-03-16T11:46:14.039Z,15.38
2023-03-16T11:48:48.106Z,15.43
2023-03-16T11:51:33.555Z,16.25
2023-03-16T11:54:25.103Z,17.23
2023-03-16T11:56:59.933Z,15.75
2023-03-16T11:59:29.261Z,14.85
2023-03-16T12:02:01.826Z,14.31
2023-03-16T12:04:45.216Z,15.15
2023-03-16T12:07:21.860Z,14.81
2023-03-16T12:10:23.689Z,14.39
2023-03-16T12:13:22.991Z,15.22
2023-03-16T12:15:54.699Z,14.03
2023-03-16T12:18:34.691Z,13.46
2023-03-16T12:21:15.122Z,14.26
2023-03-16T12:23:55.380Z,14.02
2023-03-16T12:26:26.595Z,15.17
2023-03-16T12:28:55.300Z,14.14
2023-03-16T12:31:50.241Z,14.52
2023-03-16T12:34:28.176Z,14.38
2023-03-16T12:37:14.258Z,13.68
2023-03-16T12:39:40.836Z,14.46
2023-03-16T12:42:36.540Z,14.35
2023-03-16T12:45:10.773Z,14.52
2023-03-16T12:47:38.045Z,14.06
2023-03-16T12:50:11.422Z,13.46
2023-03-16T12:52:49.336Z,13.81
2023-03-16T12:55:27.888Z,14.10
2023-03-16T12:58:06.443Z,14.34
2023-03-16T13:00:35.968Z,14.75
2023-03-16T13:03:05.608Z,13.92
2023-03-16T13:05:35.337Z,14.12
2023-03-16T13:08:11.245Z,14.16
2023-03-16T13:10:38.876Z,12.41
2023-03-16T13:13:11.469Z,10.96
2023-03-16T13:15:40.306Z,10.50
2023-03-16T13:18:09.977Z,11.11
2023-03-16T13:20:48.613Z,13.32
2023-03-16T13:23:24.642Z,14.58
2023-03-16T13:26:14.511Z,13.29
2023-03-16T13:28:43.218Z,13.33
2023-03-16T13:31:33.064Z,14.36
2023-03-16T13:34:00.666Z,13.77
2023-03-16T13:36:29.859Z,13.87
2023-03-16T13:39:12.079Z,14.00
2023-03-16T13:41:38.676Z,13.77
2023-03-16T13:44:05.326Z,12.99
2023-03-16T13:46:31.951Z,13.40
2023-03-16T13:49:01.642Z,13.54
2023-03-16T13:51:31.090Z,13.14
2023-03-16T13:53:57.880Z,13.06
2023-03-16T13:56:28.900Z,13.11
2023-03-16T13:58:58.615Z,12.50
2023-03-16T14:01:28.587Z,13.02
2023-03-16T14:03:59.587Z,13.64
2023-03-16T14:06:28.910Z,13.59
2023-03-16T14:09:02.842Z,12.62
2023-03-16T14:11:29.910Z,12.32
2023-03-16T14:13:58.931Z,13.29
2023-03-16T14:16:32.046Z,12.99
2023-03-16T14:19:03.273Z,12.66
2023-03-16T14:21:34.169Z,12.59
2023-03-16T14:24:04.694Z,11.99
2023-03-16T14:26:46.094Z,12.15
2023-03-16T14:29:18.714Z,11.59
2023-03-16T14:31:46.054Z,10.95
2023-03-16T14:34:41.864Z,11.30
2023-03-16T14:37:14.816Z,10.94
2023-03-16T14:39:42.188Z,10.57
2023-03-16T14:42:21.479Z,10.62
2023-03-16T14:44:49.685Z,10.30
2023-03-16T14:47:24.212Z,10.10
2023-03-16T14:49:51.390Z,9.85
2023-03-16T14:52:31.556Z,9.71
2023-03-16T14:54:59.226Z,9.76
2023-03-16T14:57:26.946Z,9.72
2023-03-16T14:59:54.574Z,9.70
2023-03-16T15:02:28.898Z,9.38
2023-03-16T15:04:56.784Z,9.34
2023-03-16T15:07:27.218Z,9.39
2023-03-16T15:09:55.194Z,9.19
2023-03-16T15:12:25.036Z,9.12
2023-03-16T15:15:10.801Z,9.09
2023-03-16T15:17:39.751Z,9.08
2023-03-16T15:20:07.227Z,8.98
2023-03-16T15:22:39.130Z,8.97
2023-03-16T15:25:08.821Z,8.80
2023-03-16T15:27:36.669Z,8.87
2023-03-16T15:30:03.542Z,8.84
2023-03-16T15:32:30.338Z,8.77
2023-03-16T15:34:57.704Z,8.76
2023-03-16T15:37:27.679Z,8.65
2023-03-16T15:39:54.492Z,8.66
2023-03-16T15:42:21.276Z,8.56
2023-03-16T15:44:48.609Z,8.63
2023-03-16T15:47:16.597Z,8.59
2023-03-16T15:49:47.734Z,8.38
2023-03-16T15:52:37.496Z,8.35
2023-03-16T15:55:07.880Z,8.29
2023-03-16T15:57:36.702Z,8.17
2023-03-16T16:00:04.458Z,8.09
2023-03-16T16:02:32.268Z,8.08
2023-03-16T16:04:59.349Z,7.96
2023-03-16T16:07:27.249Z,7.95
2023-03-16T16:09:54.066Z,7.60
2023-03-16T16:12:26.863Z,7.72
2023-03-16T16:14:56.206Z,7.58
2023-03-16T16:17:36.476Z,7.52
2023-03-16T16:20:25.580Z,7.55
2023-03-16T16:22:52.221Z,7.51
2023-03-16T16:25:22.195Z,7.70
2023-03-16T16:27:50.278Z,7.55
2023-03-16T16:30:26.615Z,7.39
2023-03-16T16:32:53.993Z,7.14
2023-03-16T16:35:27.495Z,7.07
2023-03-16T16:37:54.382Z,6.98
2023-03-16T16:40:24.012Z,6.97
2023-03-16T16:42:53.526Z,6.97
2023-03-16T16:45:27.881Z,6.89
2023-03-16T16:47:55.756Z,6.88
2023-03-16T16:50:26.578Z,6.72
2023-03-16T16:52:54.922Z,6.66
2023-03-16T16:55:22.553Z,6.42
2023-03-16T16:57:52.715Z,6.55
2023-03-16T17:00:25.764Z,6.08
2023-03-16T17:02:55.820Z,5.60
2023-03-16T17:05:25.698Z,5.09
2023-03-16T17:07:52.955Z,4.89
2023-03-16T17:10:25.159Z,4.66
2023-03-16T17:12:56.908Z,4.30
2023-03-16T17:15:30.367Z,4.30
2023-03-16T17:18:17.414Z,4.43
2023-03-16T17:20:44.911Z,3.94
2023-03-16T17:23:37.124Z,3.64
2023-03-16T17:26:13.883Z,3.29
2023-03-16T17:29:06.211Z,2.99
2023-03-16T17:31:39.041Z,2.83
2023-03-16T17:34:23.803Z,2.49
2023-03-16T17:36:51.323Z,2.54
2023-03-16T17:39:22.179Z,2.43
2023-03-16T17:41:54.638Z,2.35
2023-03-16T17:44:21.612Z,2.29
2023-03-16T17:46:48.902Z,2.01
2023-03-16T17:49:18.322Z,1.93
2023-03-16T17:51:45.191Z,1.79
2023-03-16T17:54:11.999Z,1.59
2023-03-16T17:56:40.365Z,1.34
2023-03-16T17:59:15.624Z,1.29
2023-03-16T18:01:47.093Z,1.12
2023-03-16T18:04:24.443Z,0.97
2023-03-16T18:06:51.530Z,1.13
2023-03-16T18:09:20.517Z,0.95
2023-03-16T18:11:50.064Z,1.28
2023-03-16T18:14:36.774Z,1.20
2023-03-16T18:17:15.768Z,1.22
2023-03-16T18:19:43.561Z,2.13
2023-03-16T18:22:23.034Z,2.37
2023-03-16T18:24:51.184Z,2.58
2023-03-16T18:27:18.022Z,2.87
2023-03-16T18:29:46.905Z,3.42
2023-03-16T18:32:23.017Z,3.30
2023-03-16T18:34:51.701Z,3.28
2023-03-16T18:37:28.013Z,3.09
2023-03-16T18:39:55.265Z,3.23
2023-03-16T18:42:29.144Z,2.97
2023-03-16T18:44:55.768Z,2.60
2023-03-16T18:47:24.317Z,2.35
2023-03-16T18:49:54.351Z,2.46
2023-03-16T18:52:22.112Z,2.26
2023-03-16T18:54:49.272Z,2.01
2023-03-16T18:57:21.509Z,1.82
2023-03-16T18:59:48.809Z,1.73
2023-03-16T19:02:31.315Z,1.78
2023-03-16T19:05:00.519Z,1.82
2023-03-16T19:07:36.798Z,1.68
2023-03-16T19:10:14.530Z,1.38
2023-03-16T19:12:43.938Z,1.12
2023-03-16T19:15:19.084Z,0.94
2023-03-16T19:17:46.826Z,0.74
2023-03-16T19:20:18.812Z,0.57
2023-03-16T19:22:48.097Z,0.35
2023-03-16T19:25:29.730Z,0.06
2023-03-16T19:27:57.164Z,-0.07
2023-03-16T19:30:29.071Z,-0.22
2023-03-16T19:32:58.673Z,-0.29
2023-03-16T19:35:50.322Z,-0.58
2023-03-16T19:38:18.129Z,-0.36
2023-03-16T19:40:48.413Z,-0.34
2023-03-16T19:43:18.398Z,-0.42
2023-03-16T19:45:48.748Z,-0.55
2023-03-16T19:48:21.323Z,-0.69
2023-03-16T19:50:49.955Z,-0.82
2023-03-16T19:53:19.196Z,-0.87
2023-03-16T19:55:51.127Z,-0.67
2023-03-16T19:58:26.914Z,-0.70
2023-03-16T20:00:53.894Z,-0.63
2023-03-16T20:03:20.966Z,-0.58
2023-03-16T20:05:50.370Z,-0.38
2023-03-16T20:08:24.127Z,-0.26
2023-03-16T20:10:51.902Z,-0.36
2023-03-16T20:13:18.990Z,0.03
2023-03-16T20:15:46.622Z,-0.02
2023-03-16T20:18:19.007Z,0.30
2023-03-16T20:20:46.794Z,0.23
2023-03-16T20:23:25.725Z,0.56
2023-03-16T20:25:54.771Z,0.31
2023-03-16T20:28:25.757Z,0.47
2023-03-16T20:30:52.866Z,0.07
2023-03-16T20:33:25.469Z,0.17
2023-03-16T20:35:56.194Z,0.10
2023-03-16T20:38:23.712Z,0.03
2023-03-16T20:40:53.199Z,-0.09
2023-03-16T20:43:32.064Z,-0.48
2023-03-16T20:46:02.316Z,-0.67
2023-03-16T20:48:29.383Z,-0.85
2023-03-16T20:50:57.321Z,-1.28
2023-03-16T20:53:27.690Z,-1.13
2023-03-16T20:55:56.388Z,-1.43
2023-03-16T20:58:26.283Z,-1.50
2023-03-16T21:00:57.645Z,-1.64
2023-03-16T21:03:29.944Z,-1.87
2023-03-16T21:05:59.793Z,-1.70
2023-03-16T21:08:26.973Z,-1.91
2023-03-16T21:10:55.110Z,-2.03
2023-03-16T21:13:28.472Z,-2.07
2023-03-16T21:15:58.065Z,-2.18
2023-03-16T21:18:24.638Z,-2.29
2023-03-16T21:20:52.990Z,-2.42
2023-03-16T21:23:22.373Z,-2.45
2023-03-16T21:25:55.916Z,-2.64
2023-03-16T21:28:26.122Z,-2.63
2023-03-16T21:30:54.958Z,-2.51
2023-03-16T21:33:33.795Z,-2.92
2023-03-16T21:36:02.408Z,-2.82
2023-03-16T21:38:31.097Z,-2.81
2023-03-16T21:40:58.515Z,-2.86
2023-03-16T21:43:26.292Z,-2.95
2023-03-16T21:45:55.133Z,-2.98
2023-03-16T21:48:24.837Z,-2.87
2023-03-16T21:50:53.859Z,-3.13
2023-03-16T21:53:25.770Z,-3.15
2023-03-16T21:55:54.598Z,-3.21
2023-03-16T21:58:22.203Z,-3.24
2023-03-16T22:00:50.624Z,-3.15
2023-03-16T22:03:29.570Z,-3.42
2023-03-16T22:06:00.306Z,-3.33
2023-03-16T22:08:33.068Z,-3.45
2023-03-16T22:11:00.779Z,-3.28
2023-03-16T22:13:28.141Z,-3.33
2023-03-16T22:16:01.222Z,-3.33
2023-03-16T22:18:30.867Z,-3.34
2023-03-16T22:20:58.969Z,-3.41
2023-03-16T22:23:34.839Z,-3.68
2023-03-16T22:26:03.249Z,-3.73
2023-03-16T22:28:31.645Z,-3.48
2023-03-16T22:31:00.828Z,-3.43
2023-03-16T22:33:30.897Z,-3.63
2023-03-16T22:36:12.049Z,-3.80
2023-03-16T22:38:40.818Z,-3.66
2023-03-16T22:41:08.200Z,-3.70
2023-03-16T22:43:37.078Z,-3.61
2023-03-16T22:46:04.204Z,-3.79
2023-03-16T22:48:32.181Z,-3.63
2023-03-16T22:51:03.851Z,-3.94
2023-03-16T22:53:39.946Z,-3.74
2023-03-16T22:56:10.237Z,-3.69
2023-03-16T22:58:41.261Z,-3.78
2023-03-16T23:01:19.646Z,-3.84
2023-03-16T23:03:48.456Z,-4.09
2023-03-16T23:06:21.580Z,-3.99
2023-03-16T23:08:49.180Z,-3.78
2023-03-16T23:11:22.356Z,-3.95
2023-03-16T23:13:49.796Z,-3.77
2023-03-16T23:16:36.681Z,-3.99
2023-03-16T23:19:24.389Z,-4.16
2023-03-16T23:21:53.100Z,-4.17
2023-03-16T23:24:19.696Z,-3.98
2023-03-16T23:26:46.793Z,-3.93
2023-03-16T23:29:13.818Z,-4.09
2023-03-16T23:31:40.970Z,-4.12
2023-03-16T23:34:20.808Z,-4.26
2023-03-16T23:36:47.554Z,-4.24
2023-03-16T23:39:14.399Z,-4.43
2023-03-16T23:41:44.135Z,-4.35
2023-03-16T23:44:23.409Z,-4.08
2023-03-16T23:46:51.515Z,-4.23
2023-03-16T23:49:27.086Z,-4.33
2023-03-16T23:51:56.759Z,-4.42
2023-03-16T23:54:29.736Z,-4.49
2023-03-16T23:56:57.136Z,-4.54
2023-03-16T23:59:23.830Z,-4.56
